Back to the list

ASMA from the 16/10/2008 to the 23/10/2008

Date Lat °S Lon °E Intensity Pressure hPa MeanMaxWind Gusts Type
24/10/2008 1800 11.43 42.21 Undefined system
24/10/2008 1200 11.56 44.44 Undefined system
24/10/2008 0600 11.66 45.99 Undefined system
24/10/2008 0000 11.72 46.67 Undefined system
23/10/2008 1800 11.57 47.9 Undefined system
23/10/2008 1200 11.16 49 1.5 1007 20 kt, 37 km/h 25 kt, 46 km/h Tropical disturbance
23/10/2008 0600 10.79 49.83 1.5 1005 20 kt, 37 km/h 30 kt, 56 km/h Tropical disturbance
23/10/2008 0000 10.37 50.84 2 1002 25 kt, 46 km/h 35 kt, 65 km/h Tropical disturbance
22/10/2008 1800 10.61 52.06 2 1002 25 kt, 46 km/h 35 kt, 65 km/h Tropical disturbance
22/10/2008 1200 10.83 53.53 Undefined system
22/10/2008 0600 11 54.77 1.5 1004 20 kt, 37 km/h 35 kt, 65 km/h Tropical disturbance
22/10/2008 0000 11.08 56.02 1.5 1003 20 kt, 37 km/h 30 kt, 56 km/h Tropical disturbance
21/10/2008 1800 11.15 57.3 1.5 1003 20 kt, 37 km/h 30 kt, 56 km/h Tropical disturbance
21/10/2008 1200 11.51 58.35 2.5 998 30 kt, 56 km/h 40 kt, 74 km/h Tropical depression
21/10/2008 0600 11.89 59.2 2.5 997 30 kt, 56 km/h 40 kt, 74 km/h Tropical depression
21/10/2008 0000 12.06 60.32 2.5 996 35 kt, 65 km/h 50 kt, 93 km/h Moderate tropical storm
20/10/2008 1800 12.02 61.23 3 993 40 kt, 74 km/h 55 kt, 102 km/h Moderate tropical storm
20/10/2008 1200 11.98 61.65 3 990 40 kt, 74 km/h 60 kt, 111 km/h Moderate tropical storm
20/10/2008 0600 12.06 61.93 3.5 985 45 kt, 83 km/h 65 kt, 120 km/h Moderate tropical storm
20/10/2008 0000 12.19 62.31 3 994 35 kt, 65 km/h 45 kt, 83 km/h Moderate tropical storm
19/10/2008 1800 11.4 63.3 2.5 996 35 kt, 65 km/h 45 kt, 83 km/h Moderate tropical storm
19/10/2008 1200 10.81 64.18 2.5 998 30 kt, 56 km/h 45 kt, 83 km/h Tropical depression
19/10/2008 0600 10.42 65.03 2.5 999 30 kt, 56 km/h 45 kt, 83 km/h Tropical depression
19/10/2008 0000 9.79 66.2 2.5 999 30 kt, 56 km/h 40 kt, 74 km/h Tropical depression
18/10/2008 1800 9 67.02 2 1000 25 kt, 46 km/h 35 kt, 65 km/h Tropical disturbance
18/10/2008 1200 8.53 67.63 2 1000 25 kt, 46 km/h 35 kt, 65 km/h Tropical disturbance
18/10/2008 0600 8.25 68.28 2 1002 25 kt, 46 km/h 35 kt, 65 km/h Tropical disturbance
18/10/2008 0000 7.97 68.74 2 1001 25 kt, 46 km/h 40 kt, 74 km/h Tropical disturbance
17/10/2008 1800 7.37 68.55 2 1000 30 kt, 56 km/h 45 kt, 83 km/h Tropical depression
17/10/2008 1200 6.72 68.41 2 1000 30 kt, 56 km/h 40 kt, 74 km/h Tropical depression
17/10/2008 0600 6.36 68.39 2 1000 30 kt, 56 km/h 40 kt, 74 km/h Tropical depression
17/10/2008 0000 5.91 68.61 2 1001 30 kt, 56 km/h 35 kt, 65 km/h Tropical depression
16/10/2008 1800 5.59 68.84 2 1002 25 kt, 46 km/h 35 kt, 65 km/h Tropical disturbance
16/10/2008 1200 5.62 69.25 2 1002 25 kt, 46 km/h 35 kt, 65 km/h Tropical disturbance
16/10/2008 0600 5.59 69.83 1.5 Tropical disturbance